<?xml version="1.0" encoding="UTF-8" standalone="no" ?>
<gpx xmlns="http://www.topografix.com/GPX/1/1" xmlns:xsi="http://www.w3.org/2001/XMLSchema-instance" xsi:schemaLocation="http://www.topografix.com/GPX/1/1 http://www.topografix.com/GPX/1/1/gpx.xsd" version="1.1" creator="VisuGPX - https://www.visugpx.com">
  <metadata>
    <name>Tour de France 2019</name>
    <desc><![CDATA[4272km en 2 mois en tandem avec notre petit chien dans le panier avant]]></desc>
  </metadata>
  <trk>
    <name><![CDATA[Tracé 20191018-091111]]></name>
    <trkseg>
      <trkpt lat="42.41061" lon="8.64436">
        <ele>15.809</ele>
        <time>2019-10-18T07:18:44Z</time>
      </trkpt>
      <trkpt lat="42.41073" lon="8.6446">
        <ele>17.26</ele>
        <time>2019-10-18T07:21:20Z</time>
      </trkpt>
      <trkpt lat="42.41146" lon="8.64524">
        <ele>11.432</ele>
        <time>2019-10-18T07:25:41Z</time>
      </trkpt>
      <trkpt lat="42.41192" lon="8.64586">
        <ele>6.713</ele>
        <time>2019-10-18T07:26:11Z</time>
      </trkpt>
      <trkpt lat="42.41225" lon="8.64712">
        <ele>9.312</ele>
        <time>2019-10-18T07:26:41Z</time>
      </trkpt>
      <trkpt lat="42.41285" lon="8.64744">
        <ele>12.574</ele>
        <time>2019-10-18T07:27:11Z</time>
      </trkpt>
      <trkpt lat="42.41291" lon="8.64845">
        <ele>18.608</ele>
        <time>2019-10-18T07:27:41Z</time>
      </trkpt>
      <trkpt lat="42.41272" lon="8.64956">
        <ele>25.772</ele>
        <time>2019-10-18T07:28:11Z</time>
      </trkpt>
      <trkpt lat="42.41333" lon="8.65054">
        <ele>21.508</ele>
        <time>2019-10-18T07:28:41Z</time>
      </trkpt>
      <trkpt lat="42.41372" lon="8.65148">
        <ele>24.725</ele>
        <time>2019-10-18T07:29:11Z</time>
      </trkpt>
      <trkpt lat="42.41418" lon="8.65286">
        <ele>25.005</ele>
        <time>2019-10-18T07:29:41Z</time>
      </trkpt>
      <trkpt lat="42.41471" lon="8.65453">
        <ele>18.125</ele>
        <time>2019-10-18T07:30:11Z</time>
      </trkpt>
      <trkpt lat="42.41566" lon="8.65623">
        <ele>15.394</ele>
        <time>2019-10-18T07:30:41Z</time>
      </trkpt>
      <trkpt lat="42.41682" lon="8.6579">
        <ele>16.184</ele>
        <time>2019-10-18T07:31:11Z</time>
      </trkpt>
      <trkpt lat="42.41723" lon="8.65975">
        <ele>13.782</ele>
        <time>2019-10-18T07:31:41Z</time>
      </trkpt>
      <trkpt lat="42.41707" lon="8.66166">
        <ele>17.836</ele>
        <time>2019-10-18T07:32:11Z</time>
      </trkpt>
      <trkpt lat="42.41598" lon="8.66212">
        <ele>15.053</ele>
        <time>2019-10-18T07:32:41Z</time>
      </trkpt>
      <trkpt lat="42.41594" lon="8.66392">
        <ele>21.733</ele>
        <time>2019-10-18T07:33:11Z</time>
      </trkpt>
      <trkpt lat="42.41551" lon="8.66597">
        <ele>18.387</ele>
        <time>2019-10-18T07:33:44Z</time>
      </trkpt>
      <trkpt lat="42.41451" lon="8.66709">
        <ele>18.262</ele>
        <time>2019-10-18T07:34:14Z</time>
      </trkpt>
      <trkpt lat="42.41451" lon="8.66886">
        <ele>16.175</ele>
        <time>2019-10-18T07:34:44Z</time>
      </trkpt>
      <trkpt lat="42.41358" lon="8.67026">
        <ele>17.039</ele>
        <time>2019-10-18T07:35:14Z</time>
      </trkpt>
      <trkpt lat="42.41286" lon="8.67203">
        <ele>15.45</ele>
        <time>2019-10-18T07:35:44Z</time>
      </trkpt>
      <trkpt lat="42.4118" lon="8.6723">
        <ele>17.61</ele>
        <time>2019-10-18T07:36:14Z</time>
      </trkpt>
      <trkpt lat="42.41148" lon="8.67384">
        <ele>17.489</ele>
        <time>2019-10-18T07:36:44Z</time>
      </trkpt>
      <trkpt lat="42.41115" lon="8.67521">
        <ele>18.049</ele>
        <time>2019-10-18T07:37:14Z</time>
      </trkpt>
      <trkpt lat="42.41172" lon="8.67661">
        <ele>20.2</ele>
        <time>2019-10-18T07:37:44Z</time>
      </trkpt>
      <trkpt lat="42.41141" lon="8.67826">
        <ele>19.86</ele>
        <time>2019-10-18T07:38:14Z</time>
      </trkpt>
      <trkpt lat="42.41157" lon="8.68027">
        <ele>22.039</ele>
        <time>2019-10-18T07:38:44Z</time>
      </trkpt>
      <trkpt lat="42.41151" lon="8.68214">
        <ele>19.264</ele>
        <time>2019-10-18T07:39:14Z</time>
      </trkpt>
      <trkpt lat="42.41105" lon="8.68377">
        <ele>20.785</ele>
        <time>2019-10-18T07:39:44Z</time>
      </trkpt>
      <trkpt lat="42.4105" lon="8.68532">
        <ele>26.536</ele>
        <time>2019-10-18T07:40:14Z</time>
      </trkpt>
      <trkpt lat="42.40995" lon="8.68683">
        <ele>29.126</ele>
        <time>2019-10-18T07:40:44Z</time>
      </trkpt>
      <trkpt lat="42.40914" lon="8.68809">
        <ele>26.638</ele>
        <time>2019-10-18T07:41:14Z</time>
      </trkpt>
      <trkpt lat="42.40815" lon="8.68926">
        <ele>24.288</ele>
        <time>2019-10-18T07:41:44Z</time>
      </trkpt>
      <trkpt lat="42.40715" lon="8.69051">
        <ele>24.187</ele>
        <time>2019-10-18T07:42:14Z</time>
      </trkpt>
      <trkpt lat="42.40658" lon="8.69213">
        <ele>23.674</ele>
        <time>2019-10-18T07:42:44Z</time>
      </trkpt>
      <trkpt lat="42.40566" lon="8.69351">
        <ele>23.751</ele>
        <time>2019-10-18T07:43:14Z</time>
      </trkpt>
      <trkpt lat="42.40475" lon="8.69487">
        <ele>23.708</ele>
        <time>2019-10-18T07:43:44Z</time>
      </trkpt>
      <trkpt lat="42.40359" lon="8.69542">
        <ele>23.654</ele>
        <time>2019-10-18T07:44:14Z</time>
      </trkpt>
      <trkpt lat="42.40295" lon="8.69668">
        <ele>28.692</ele>
        <time>2019-10-18T07:44:44Z</time>
      </trkpt>
      <trkpt lat="42.40203" lon="8.69764">
        <ele>30.679</ele>
        <time>2019-10-18T07:45:14Z</time>
      </trkpt>
      <trkpt lat="42.40139" lon="8.69767">
        <ele>32.448</ele>
        <time>2019-10-18T07:47:38.001Z</time>
      </trkpt>
      <trkpt lat="42.4005" lon="8.69759">
        <ele>31.287</ele>
        <time>2019-10-18T07:48:08.001Z</time>
      </trkpt>
      <trkpt lat="42.39975" lon="8.69754">
        <ele>34.407</ele>
        <time>2019-10-18T07:48:38.001Z</time>
      </trkpt>
      <trkpt lat="42.39898" lon="8.69749">
        <ele>38.179</ele>
        <time>2019-10-18T07:49:08.001Z</time>
      </trkpt>
      <trkpt lat="42.39826" lon="8.69746">
        <ele>42.754</ele>
        <time>2019-10-18T07:49:38.001Z</time>
      </trkpt>
      <trkpt lat="42.39755" lon="8.69728">
        <ele>47.519</ele>
        <time>2019-10-18T07:50:08.001Z</time>
      </trkpt>
      <trkpt lat="42.39685" lon="8.69707">
        <ele>50.56</ele>
        <time>2019-10-18T07:50:38.001Z</time>
      </trkpt>
      <trkpt lat="42.39614" lon="8.69688">
        <ele>55.68</ele>
        <time>2019-10-18T07:51:08.001Z</time>
      </trkpt>
      <trkpt lat="42.39546" lon="8.69692">
        <ele>58.146</ele>
        <time>2019-10-18T07:51:38.001Z</time>
      </trkpt>
      <trkpt lat="42.39483" lon="8.69721">
        <ele>63.981</ele>
        <time>2019-10-18T07:52:08.001Z</time>
      </trkpt>
      <trkpt lat="42.39433" lon="8.6967">
        <ele>71.596</ele>
        <time>2019-10-18T07:52:38.001Z</time>
      </trkpt>
      <trkpt lat="42.39375" lon="8.69617">
        <ele>77.574</ele>
        <time>2019-10-18T07:53:11.001Z</time>
      </trkpt>
      <trkpt lat="42.3933" lon="8.69543">
        <ele>79.142</ele>
        <time>2019-10-18T07:53:41.001Z</time>
      </trkpt>
      <trkpt lat="42.39276" lon="8.69474">
        <ele>79.763</ele>
        <time>2019-10-18T07:54:11.001Z</time>
      </trkpt>
      <trkpt lat="42.3921" lon="8.6943">
        <ele>83.004</ele>
        <time>2019-10-18T07:54:41.001Z</time>
      </trkpt>
      <trkpt lat="42.39158" lon="8.69358">
        <ele>83.073</ele>
        <time>2019-10-18T07:55:11.001Z</time>
      </trkpt>
      <trkpt lat="42.39105" lon="8.69288">
        <ele>87.676</ele>
        <time>2019-10-18T07:55:41.001Z</time>
      </trkpt>
      <trkpt lat="42.39062" lon="8.69207">
        <ele>90.693</ele>
        <time>2019-10-18T07:56:11.001Z</time>
      </trkpt>
      <trkpt lat="42.39013" lon="8.69126">
        <ele>92.094</ele>
        <time>2019-10-18T07:56:41.001Z</time>
      </trkpt>
      <trkpt lat="42.38945" lon="8.69109">
        <ele>97.02</ele>
        <time>2019-10-18T07:57:11.001Z</time>
      </trkpt>
      <trkpt lat="42.38883" lon="8.6917">
        <ele>98.16</ele>
        <time>2019-10-18T07:57:41.001Z</time>
      </trkpt>
      <trkpt lat="42.3882" lon="8.69171">
        <ele>100.941</ele>
        <time>2019-10-18T07:58:11.001Z</time>
      </trkpt>
      <trkpt lat="42.38746" lon="8.69141">
        <ele>102.767</ele>
        <time>2019-10-18T07:58:41.001Z</time>
      </trkpt>
      <trkpt lat="42.38671" lon="8.69178">
        <ele>104.897</ele>
        <time>2019-10-18T07:59:11.001Z</time>
      </trkpt>
      <trkpt lat="42.38628" lon="8.69266">
        <ele>105.92</ele>
        <time>2019-10-18T07:59:41.001Z</time>
      </trkpt>
      <trkpt lat="42.38572" lon="8.69342">
        <ele>108.524</ele>
        <time>2019-10-18T08:00:11.001Z</time>
      </trkpt>
      <trkpt lat="42.38515" lon="8.69412">
        <ele>111.381</ele>
        <time>2019-10-18T08:00:41.001Z</time>
      </trkpt>
      <trkpt lat="42.38488" lon="8.69514">
        <ele>113.476</ele>
        <time>2019-10-18T08:01:11.001Z</time>
      </trkpt>
      <trkpt lat="42.38466" lon="8.6964">
        <ele>112.148</ele>
        <time>2019-10-18T08:01:41.001Z</time>
      </trkpt>
      <trkpt lat="42.38417" lon="8.69779">
        <ele>112.551</ele>
        <time>2019-10-18T08:02:11.001Z</time>
      </trkpt>
      <trkpt lat="42.38352" lon="8.69892">
        <ele>111.217</ele>
        <time>2019-10-18T08:02:41.001Z</time>
      </trkpt>
      <trkpt lat="42.38346" lon="8.69764">
        <ele>120.018</ele>
        <time>2019-10-18T08:03:11.001Z</time>
      </trkpt>
      <trkpt lat="42.38381" lon="8.69602">
        <ele>120.848</ele>
        <time>2019-10-18T08:03:41.001Z</time>
      </trkpt>
      <trkpt lat="42.38372" lon="8.69441">
        <ele>118.347</ele>
        <time>2019-10-18T08:04:11.001Z</time>
      </trkpt>
      <trkpt lat="42.38375" lon="8.69304">
        <ele>125.282</ele>
        <time>2019-10-18T08:04:41.001Z</time>
      </trkpt>
      <trkpt lat="42.384" lon="8.69214">
        <ele>132.149</ele>
        <time>2019-10-18T08:05:11.001Z</time>
      </trkpt>
      <trkpt lat="42.3842" lon="8.69137">
        <ele>140.97</ele>
        <time>2019-10-18T08:05:41.001Z</time>
      </trkpt>
      <trkpt lat="42.38441" lon="8.6906">
        <ele>140.466</ele>
        <time>2019-10-18T08:06:11.001Z</time>
      </trkpt>
      <trkpt lat="42.38453" lon="8.68972">
        <ele>143.735</ele>
        <time>2019-10-18T08:06:41.001Z</time>
      </trkpt>
      <trkpt lat="42.38472" lon="8.68898">
        <ele>147.078</ele>
        <time>2019-10-18T08:07:11.001Z</time>
      </trkpt>
      <trkpt lat="42.38521" lon="8.68866">
        <ele>144.878</ele>
        <time>2019-10-18T08:07:41.001Z</time>
      </trkpt>
      <trkpt lat="42.38586" lon="8.68851">
        <ele>144.677</ele>
        <time>2019-10-18T08:08:11.001Z</time>
      </trkpt>
      <trkpt lat="42.38625" lon="8.68772">
        <ele>150.219</ele>
        <time>2019-10-18T08:08:41.001Z</time>
      </trkpt>
      <trkpt lat="42.38657" lon="8.68691">
        <ele>152.389</ele>
        <time>2019-10-18T08:09:11.001Z</time>
      </trkpt>
      <trkpt lat="42.38612" lon="8.68637">
        <ele>158.194</ele>
        <time>2019-10-18T08:09:41.001Z</time>
      </trkpt>
      <trkpt lat="42.38563" lon="8.68593">
        <ele>163.241</ele>
        <time>2019-10-18T08:10:11.001Z</time>
      </trkpt>
      <trkpt lat="42.38516" lon="8.68544">
        <ele>167.322</ele>
        <time>2019-10-18T08:10:41.001Z</time>
      </trkpt>
      <trkpt lat="42.38454" lon="8.68524">
        <ele>172.839</ele>
        <time>2019-10-18T08:11:14.001Z</time>
      </trkpt>
      <trkpt lat="42.38409" lon="8.68471">
        <ele>175.879</ele>
        <time>2019-10-18T08:11:44.001Z</time>
      </trkpt>
      <trkpt lat="42.38386" lon="8.68395">
        <ele>176.767</ele>
        <time>2019-10-18T08:12:14.001Z</time>
      </trkpt>
      <trkpt lat="42.38332" lon="8.68368">
        <ele>176.552</ele>
        <time>2019-10-18T08:12:44.001Z</time>
      </trkpt>
      <trkpt lat="42.38287" lon="8.68436">
        <ele>178.14</ele>
        <time>2019-10-18T08:13:14.001Z</time>
      </trkpt>
      <trkpt lat="42.38217" lon="8.68425">
        <ele>183.058</ele>
        <time>2019-10-18T08:13:44.001Z</time>
      </trkpt>
      <trkpt lat="42.38149" lon="8.68456">
        <ele>185.508</ele>
        <time>2019-10-18T08:14:14.001Z</time>
      </trkpt>
      <trkpt lat="42.38079" lon="8.68485">
        <ele>186.688</ele>
        <time>2019-10-18T08:14:44.001Z</time>
      </trkpt>
      <trkpt lat="42.38104" lon="8.68373">
        <ele>185.945</ele>
        <time>2019-10-18T08:15:14.001Z</time>
      </trkpt>
      <trkpt lat="42.3808" lon="8.68287">
        <ele>186.948</ele>
        <time>2019-10-18T08:15:44.001Z</time>
      </trkpt>
      <trkpt lat="42.38008" lon="8.68295">
        <ele>190.923</ele>
        <time>2019-10-18T08:16:14.001Z</time>
      </trkpt>
      <trkpt lat="42.37946" lon="8.68229">
        <ele>196.467</ele>
        <time>2019-10-18T08:16:44.001Z</time>
      </trkpt>
      <trkpt lat="42.37924" lon="8.68159">
        <ele>191.583</ele>
        <time>2019-10-18T08:17:14.001Z</time>
      </trkpt>
      <trkpt lat="42.38001" lon="8.68091">
        <ele>193.839</ele>
        <time>2019-10-18T08:17:44.001Z</time>
      </trkpt>
      <trkpt lat="42.38059" lon="8.68017">
        <ele>195.146</ele>
        <time>2019-10-18T08:18:14.001Z</time>
      </trkpt>
      <trkpt lat="42.3803" lon="8.67921">
        <ele>200.657</ele>
        <time>2019-10-18T08:18:44.001Z</time>
      </trkpt>
      <trkpt lat="42.37957" lon="8.67904">
        <ele>203.324</ele>
        <time>2019-10-18T08:19:14.001Z</time>
      </trkpt>
      <trkpt lat="42.37879" lon="8.67907">
        <ele>205.506</ele>
        <time>2019-10-18T08:19:44.001Z</time>
      </trkpt>
      <trkpt lat="42.37826" lon="8.67868">
        <ele>210.313</ele>
        <time>2019-10-18T08:20:14.001Z</time>
      </trkpt>
      <trkpt lat="42.37844" lon="8.67779">
        <ele>213.171</ele>
        <time>2019-10-18T08:20:44.001Z</time>
      </trkpt>
      <trkpt lat="42.37845" lon="8.6768">
        <ele>210.608</ele>
        <time>2019-10-18T08:21:14.001Z</time>
      </trkpt>
      <trkpt lat="42.37782" lon="8.67693">
        <ele>212.8</ele>
        <time>2019-10-18T08:21:44.001Z</time>
      </trkpt>
      <trkpt lat="42.37717" lon="8.67706">
        <ele>217.035</ele>
        <time>2019-10-18T08:22:14.001Z</time>
      </trkpt>
      <trkpt lat="42.3764" lon="8.67719">
        <ele>217.559</ele>
        <time>2019-10-18T08:22:44.001Z</time>
      </trkpt>
      <trkpt lat="42.37583" lon="8.67783">
        <ele>222.744</ele>
        <time>2019-10-18T08:23:14.001Z</time>
      </trkpt>
      <trkpt lat="42.37516" lon="8.67829">
        <ele>226.712</ele>
        <time>2019-10-18T08:23:44.001Z</time>
      </trkpt>
      <trkpt lat="42.37503" lon="8.67729">
        <ele>229.227</ele>
        <time>2019-10-18T08:24:14.001Z</time>
      </trkpt>
      <trkpt lat="42.37466" lon="8.67648">
        <ele>234.721</ele>
        <time>2019-10-18T08:24:44.001Z</time>
      </trkpt>
      <trkpt lat="42.37395" lon="8.67617">
        <ele>237.172</ele>
        <time>2019-10-18T08:25:14.001Z</time>
      </trkpt>
      <trkpt lat="42.37324" lon="8.67594">
        <ele>234.844</ele>
        <time>2019-10-18T08:25:44.001Z</time>
      </trkpt>
      <trkpt lat="42.37353" lon="8.67525">
        <ele>238.802</ele>
        <time>2019-10-18T08:26:14.001Z</time>
      </trkpt>
      <trkpt lat="42.37393" lon="8.67438">
        <ele>241.49</ele>
        <time>2019-10-18T08:26:44.001Z</time>
      </trkpt>
      <trkpt lat="42.37464" lon="8.67414">
        <ele>241.602</ele>
        <time>2019-10-18T08:27:14.001Z</time>
      </trkpt>
      <trkpt lat="42.37524" lon="8.67374">
        <ele>243.922</ele>
        <time>2019-10-18T08:27:44.001Z</time>
      </trkpt>
      <trkpt lat="42.37556" lon="8.67307">
        <ele>251.32</ele>
        <time>2019-10-18T08:28:14.001Z</time>
      </trkpt>
      <trkpt lat="42.37555" lon="8.67234">
        <ele>255.43</ele>
        <time>2019-10-18T08:28:47.001Z</time>
      </trkpt>
      <trkpt lat="42.37509" lon="8.6719">
        <ele>260.066</ele>
        <time>2019-10-18T08:29:17.001Z</time>
      </trkpt>
      <trkpt lat="42.37455" lon="8.67161">
        <ele>268.169</ele>
        <time>2019-10-18T08:29:47.001Z</time>
      </trkpt>
      <trkpt lat="42.37398" lon="8.67129">
        <ele>268.581</ele>
        <time>2019-10-18T08:30:17.001Z</time>
      </trkpt>
      <trkpt lat="42.37373" lon="8.6706">
        <ele>273.155</ele>
        <time>2019-10-18T08:30:47.001Z</time>
      </trkpt>
      <trkpt lat="42.3734" lon="8.66994">
        <ele>273.992</ele>
        <time>2019-10-18T08:31:17.001Z</time>
      </trkpt>
      <trkpt lat="42.37288" lon="8.66961">
        <ele>276.572</ele>
        <time>2019-10-18T08:31:47.001Z</time>
      </trkpt>
      <trkpt lat="42.37242" lon="8.6691">
        <ele>275.456</ele>
        <time>2019-10-18T08:32:17.001Z</time>
      </trkpt>
      <trkpt lat="42.372" lon="8.66893">
        <ele>278.87</ele>
        <time>2019-10-18T08:41:38.001Z</time>
      </trkpt>
      <trkpt lat="42.37176" lon="8.66919">
        <ele>281.821</ele>
        <time>2019-10-18T08:43:35.001Z</time>
      </trkpt>
      <trkpt lat="42.3712" lon="8.66956">
        <ele>289.113</ele>
        <time>2019-10-18T08:44:05.001Z</time>
      </trkpt>
      <trkpt lat="42.37064" lon="8.67033">
        <ele>288.066</ele>
        <time>2019-10-18T08:44:35.001Z</time>
      </trkpt>
      <trkpt lat="42.36986" lon="8.6708">
        <ele>287.267</ele>
        <time>2019-10-18T08:45:05.001Z</time>
      </trkpt>
      <trkpt lat="42.36915" lon="8.6714">
        <ele>290.557</ele>
        <time>2019-10-18T08:45:35.001Z</time>
      </trkpt>
      <trkpt lat="42.36852" lon="8.6721">
        <ele>292.245</ele>
        <time>2019-10-18T08:46:05.001Z</time>
      </trkpt>
      <trkpt lat="42.3679" lon="8.67203">
        <ele>292.811</ele>
        <time>2019-10-18T08:46:35.001Z</time>
      </trkpt>
      <trkpt lat="42.36829" lon="8.67119">
        <ele>297.931</ele>
        <time>2019-10-18T08:47:05.001Z</time>
      </trkpt>
      <trkpt lat="42.3683" lon="8.6702">
        <ele>296.798</ele>
        <time>2019-10-18T08:47:35.001Z</time>
      </trkpt>
      <trkpt lat="42.36871" lon="8.66942">
        <ele>302.583</ele>
        <time>2019-10-18T08:48:05.001Z</time>
      </trkpt>
      <trkpt lat="42.36882" lon="8.66851">
        <ele>303.852</ele>
        <time>2019-10-18T08:48:35.001Z</time>
      </trkpt>
      <trkpt lat="42.36897" lon="8.66751">
        <ele>303.583</ele>
        <time>2019-10-18T08:49:05.001Z</time>
      </trkpt>
      <trkpt lat="42.36886" lon="8.66659">
        <ele>309.599</ele>
        <time>2019-10-18T08:49:35.001Z</time>
      </trkpt>
      <trkpt lat="42.36945" lon="8.66595">
        <ele>310.086</ele>
        <time>2019-10-18T08:50:05.001Z</time>
      </trkpt>
      <trkpt lat="42.36913" lon="8.66516">
        <ele>312.953</ele>
        <time>2019-10-18T08:50:35.001Z</time>
      </trkpt>
      <trkpt lat="42.36846" lon="8.66477">
        <ele>319.769</ele>
        <time>2019-10-18T08:51:05.001Z</time>
      </trkpt>
      <trkpt lat="42.36768" lon="8.66453">
        <ele>321.806</ele>
        <time>2019-10-18T08:51:35.001Z</time>
      </trkpt>
      <trkpt lat="42.36701" lon="8.6649">
        <ele>322.007</ele>
        <time>2019-10-18T08:52:05.001Z</time>
      </trkpt>
      <trkpt lat="42.36629" lon="8.66525">
        <ele>323.304</ele>
        <time>2019-10-18T08:52:35.001Z</time>
      </trkpt>
      <trkpt lat="42.36545" lon="8.66518">
        <ele>324.048</ele>
        <time>2019-10-18T08:53:05.001Z</time>
      </trkpt>
      <trkpt lat="42.36466" lon="8.66494">
        <ele>327.629</ele>
        <time>2019-10-18T08:53:35.001Z</time>
      </trkpt>
      <trkpt lat="42.36425" lon="8.66454">
        <ele>330.37</ele>
        <time>2019-10-18T08:54:05.001Z</time>
      </trkpt>
      <trkpt lat="42.36465" lon="8.66392">
        <ele>330.936</ele>
        <time>2019-10-18T08:54:35.001Z</time>
      </trkpt>
      <trkpt lat="42.36447" lon="8.66319">
        <ele>335.117</ele>
        <time>2019-10-18T08:55:05.001Z</time>
      </trkpt>
      <trkpt lat="42.36412" lon="8.66251">
        <ele>343.255</ele>
        <time>2019-10-18T08:55:35.001Z</time>
      </trkpt>
      <trkpt lat="42.36442" lon="8.66198">
        <ele>347.2</ele>
        <time>2019-10-18T08:56:05.001Z</time>
      </trkpt>
      <trkpt lat="42.36498" lon="8.66173">
        <ele>346.729</ele>
        <time>2019-10-18T08:56:35.001Z</time>
      </trkpt>
      <trkpt lat="42.36552" lon="8.66151">
        <ele>345.582</ele>
        <time>2019-10-18T08:57:08.001Z</time>
      </trkpt>
      <trkpt lat="42.36574" lon="8.66082">
        <ele>351.67</ele>
        <time>2019-10-18T08:57:38.001Z</time>
      </trkpt>
      <trkpt lat="42.36605" lon="8.66013">
        <ele>355.198</ele>
        <time>2019-10-18T08:58:08.001Z</time>
      </trkpt>
      <trkpt lat="42.3657" lon="8.65948">
        <ele>361.32</ele>
        <time>2019-10-18T08:58:38.001Z</time>
      </trkpt>
      <trkpt lat="42.36573" lon="8.65869">
        <ele>364.936</ele>
        <time>2019-10-18T08:59:08.001Z</time>
      </trkpt>
      <trkpt lat="42.36546" lon="8.65806">
        <ele>371.882</ele>
        <time>2019-10-18T08:59:38.001Z</time>
      </trkpt>
      <trkpt lat="42.36505" lon="8.65753">
        <ele>372.1</ele>
        <time>2019-10-18T09:00:08.001Z</time>
      </trkpt>
      <trkpt lat="42.36495" lon="8.65672">
        <ele>376.356</ele>
        <time>2019-10-18T09:00:38.001Z</time>
      </trkpt>
      <trkpt lat="42.36454" lon="8.65618">
        <ele>378.148</ele>
        <time>2019-10-18T09:01:08.001Z</time>
      </trkpt>
      <trkpt lat="42.36391" lon="8.65599">
        <ele>379.426</ele>
        <time>2019-10-18T09:01:38.001Z</time>
      </trkpt>
      <trkpt lat="42.36378" lon="8.65516">
        <ele>384.389</ele>
        <time>2019-10-18T09:02:08.001Z</time>
      </trkpt>
      <trkpt lat="42.36399" lon="8.65436">
        <ele>388.692</ele>
        <time>2019-10-18T09:02:38.001Z</time>
      </trkpt>
      <trkpt lat="42.36369" lon="8.65353">
        <ele>390.365</ele>
        <time>2019-10-18T09:03:08.001Z</time>
      </trkpt>
      <trkpt lat="42.3636" lon="8.65274">
        <ele>394.691</ele>
        <time>2019-10-18T09:03:38.001Z</time>
      </trkpt>
      <trkpt lat="42.36384" lon="8.65194">
        <ele>396.205</ele>
        <time>2019-10-18T09:04:11.001Z</time>
      </trkpt>
      <trkpt lat="42.36358" lon="8.65123">
        <ele>399.244</ele>
        <time>2019-10-18T09:04:41.001Z</time>
      </trkpt>
      <trkpt lat="42.36342" lon="8.65042">
        <ele>399.674</ele>
        <time>2019-10-18T09:05:11.001Z</time>
      </trkpt>
      <trkpt lat="42.36371" lon="8.64966">
        <ele>404.402</ele>
        <time>2019-10-18T09:05:41.001Z</time>
      </trkpt>
      <trkpt lat="42.36386" lon="8.64891">
        <ele>404.764</ele>
        <time>2019-10-18T09:06:11.001Z</time>
      </trkpt>
      <trkpt lat="42.36394" lon="8.64829">
        <ele>408.306</ele>
        <time>2019-10-18T09:07:44.001Z</time>
      </trkpt>
      <trkpt lat="42.36376" lon="8.64824">
        <ele>408.017</ele>
        <time>2019-10-18T09:10:11.001Z</time>
      </trkpt>
      <trkpt lat="42.36269" lon="8.64844">
        <ele>407.954</ele>
        <time>2019-10-18T09:10:41.001Z</time>
      </trkpt>
      <trkpt lat="42.36148" lon="8.64891">
        <ele>405.585</ele>
        <time>2019-10-18T09:11:11.001Z</time>
      </trkpt>
      <trkpt lat="42.3608" lon="8.65116">
        <ele>404.207</ele>
        <time>2019-10-18T09:11:41.001Z</time>
      </trkpt>
      <trkpt lat="42.35988" lon="8.65364">
        <ele>399.871</ele>
        <time>2019-10-18T09:12:11.001Z</time>
      </trkpt>
      <trkpt lat="42.35826" lon="8.652">
        <ele>385.989</ele>
        <time>2019-10-18T09:12:41.001Z</time>
      </trkpt>
      <trkpt lat="42.357" lon="8.64919">
        <ele>365.195</ele>
        <time>2019-10-18T09:13:11.001Z</time>
      </trkpt>
      <trkpt lat="42.35578" lon="8.64641">
        <ele>352.573</ele>
        <time>2019-10-18T09:13:41.001Z</time>
      </trkpt>
      <trkpt lat="42.3535" lon="8.64578">
        <ele>340.791</ele>
        <time>2019-10-18T09:14:11.001Z</time>
      </trkpt>
      <trkpt lat="42.35153" lon="8.64414">
        <ele>330.068</ele>
        <time>2019-10-18T09:14:41.001Z</time>
      </trkpt>
      <trkpt lat="42.35151" lon="8.64787">
        <ele>317.617</ele>
        <time>2019-10-18T09:15:11.001Z</time>
      </trkpt>
      <trkpt lat="42.34989" lon="8.64976">
        <ele>306.825</ele>
        <time>2019-10-18T09:15:41.001Z</time>
      </trkpt>
      <trkpt lat="42.35207" lon="8.65073">
        <ele>297.599</ele>
        <time>2019-10-18T09:16:11.001Z</time>
      </trkpt>
      <trkpt lat="42.35285" lon="8.65292">
        <ele>290.4</ele>
        <time>2019-10-18T09:16:41.001Z</time>
      </trkpt>
      <trkpt lat="42.35161" lon="8.65391">
        <ele>290.169</ele>
        <time>2019-10-18T09:17:11.001Z</time>
      </trkpt>
      <trkpt lat="42.35195" lon="8.65653">
        <ele>284.342</ele>
        <time>2019-10-18T09:17:44.001Z</time>
      </trkpt>
      <trkpt lat="42.35247" lon="8.65815">
        <ele>290.089</ele>
        <time>2019-10-18T09:18:14.001Z</time>
      </trkpt>
      <trkpt lat="42.35277" lon="8.65981">
        <ele>286.688</ele>
        <time>2019-10-18T09:18:44.001Z</time>
      </trkpt>
      <trkpt lat="42.35067" lon="8.65935">
        <ele>279.992</ele>
        <time>2019-10-18T09:19:14.001Z</time>
      </trkpt>
      <trkpt lat="42.3487" lon="8.65892">
        <ele>264.612</ele>
        <time>2019-10-18T09:19:44.001Z</time>
      </trkpt>
      <trkpt lat="42.34877" lon="8.66221">
        <ele>251.658</ele>
        <time>2019-10-18T09:20:14.001Z</time>
      </trkpt>
      <trkpt lat="42.34908" lon="8.66529">
        <ele>241.316</ele>
        <time>2019-10-18T09:20:44.001Z</time>
      </trkpt>
      <trkpt lat="42.34781" lon="8.66384">
        <ele>229.509</ele>
        <time>2019-10-18T09:21:14.001Z</time>
      </trkpt>
      <trkpt lat="42.34656" lon="8.66233">
        <ele>229.899</ele>
        <time>2019-10-18T09:21:44.002Z</time>
      </trkpt>
      <trkpt lat="42.34547" lon="8.66102">
        <ele>232.869</ele>
        <time>2019-10-18T09:22:14.001Z</time>
      </trkpt>
      <trkpt lat="42.34448" lon="8.66146">
        <ele>237.797</ele>
        <time>2019-10-18T09:22:44.001Z</time>
      </trkpt>
      <trkpt lat="42.34372" lon="8.66209">
        <ele>236.385</ele>
        <time>2019-10-18T09:23:14.001Z</time>
      </trkpt>
      <trkpt lat="42.34357" lon="8.66">
        <ele>235.518</ele>
        <time>2019-10-18T09:23:44.001Z</time>
      </trkpt>
      <trkpt lat="42.34289" lon="8.6595">
        <ele>232.79</ele>
        <time>2019-10-18T09:24:14.001Z</time>
      </trkpt>
      <trkpt lat="42.3414" lon="8.65986">
        <ele>233.698</ele>
        <time>2019-10-18T09:24:44.001Z</time>
      </trkpt>
      <trkpt lat="42.34061" lon="8.65928">
        <ele>232.221</ele>
        <time>2019-10-18T09:25:14.001Z</time>
      </trkpt>
      <trkpt lat="42.34088" lon="8.65726">
        <ele>226.98</ele>
        <time>2019-10-18T09:25:44.001Z</time>
      </trkpt>
      <trkpt lat="42.33971" lon="8.65623">
        <ele>228.082</ele>
        <time>2019-10-18T09:26:14.001Z</time>
      </trkpt>
      <trkpt lat="42.33902" lon="8.65465">
        <ele>235.648</ele>
        <time>2019-10-18T09:26:44.001Z</time>
      </trkpt>
      <trkpt lat="42.33806" lon="8.65365">
        <ele>240.26</ele>
        <time>2019-10-18T09:27:14.001Z</time>
      </trkpt>
      <trkpt lat="42.33769" lon="8.65206">
        <ele>241.154</ele>
        <time>2019-10-18T09:27:44.001Z</time>
      </trkpt>
      <trkpt lat="42.33654" lon="8.65144">
        <ele>242.984</ele>
        <time>2019-10-18T09:28:14.001Z</time>
      </trkpt>
      <trkpt lat="42.3354" lon="8.65095">
        <ele>245.443</ele>
        <time>2019-10-18T09:28:44.001Z</time>
      </trkpt>
      <trkpt lat="42.33545" lon="8.64935">
        <ele>243.603</ele>
        <time>2019-10-18T09:29:14.001Z</time>
      </trkpt>
      <trkpt lat="42.33624" lon="8.64811">
        <ele>243.708</ele>
        <time>2019-10-18T09:29:44.001Z</time>
      </trkpt>
      <trkpt lat="42.33588" lon="8.64646">
        <ele>245.319</ele>
        <time>2019-10-18T09:30:14.001Z</time>
      </trkpt>
      <trkpt lat="42.33542" lon="8.64503">
        <ele>249.638</ele>
        <time>2019-10-18T09:30:44.001Z</time>
      </trkpt>
      <trkpt lat="42.33443" lon="8.6439">
        <ele>252.389</ele>
        <time>2019-10-18T09:31:14.001Z</time>
      </trkpt>
      <trkpt lat="42.33442" lon="8.64253">
        <ele>257.333</ele>
        <time>2019-10-18T09:31:44.001Z</time>
      </trkpt>
      <trkpt lat="42.33503" lon="8.6412">
        <ele>253.168</ele>
        <time>2019-10-18T09:32:14.001Z</time>
      </trkpt>
      <trkpt lat="42.33427" lon="8.63985">
        <ele>249.672</ele>
        <time>2019-10-18T09:32:44.001Z</time>
      </trkpt>
      <trkpt lat="42.33457" lon="8.6382">
        <ele>253.179</ele>
        <time>2019-10-18T09:33:14.001Z</time>
      </trkpt>
      <trkpt lat="42.33514" lon="8.63671">
        <ele>255.063</ele>
        <time>2019-10-18T09:33:44.001Z</time>
      </trkpt>
      <trkpt lat="42.33487" lon="8.63618">
        <ele>258.326</ele>
        <time>2019-10-18T09:36:35.001Z</time>
      </trkpt>
      <trkpt lat="42.33415" lon="8.63681">
        <ele>254.699</ele>
        <time>2019-10-18T09:37:05.001Z</time>
      </trkpt>
      <trkpt lat="42.33294" lon="8.63751">
        <ele>252.056</ele>
        <time>2019-10-18T09:37:38.001Z</time>
      </trkpt>
      <trkpt lat="42.33185" lon="8.63784">
        <ele>256.785</ele>
        <time>2019-10-18T09:38:08.001Z</time>
      </trkpt>
      <trkpt lat="42.33102" lon="8.63652">
        <ele>260.229</ele>
        <time>2019-10-18T09:38:38.001Z</time>
      </trkpt>
      <trkpt lat="42.32979" lon="8.63702">
        <ele>261.371</ele>
        <time>2019-10-18T09:39:08.001Z</time>
      </trkpt>
      <trkpt lat="42.32878" lon="8.63627">
        <ele>263.306</ele>
        <time>2019-10-18T09:39:38.001Z</time>
      </trkpt>
      <trkpt lat="42.3279" lon="8.63521">
        <ele>265.918</ele>
        <time>2019-10-18T09:40:08.001Z</time>
      </trkpt>
      <trkpt lat="42.32725" lon="8.63375">
        <ele>265.424</ele>
        <time>2019-10-18T09:40:38.001Z</time>
      </trkpt>
      <trkpt lat="42.32671" lon="8.63236">
        <ele>266.15</ele>
        <time>2019-10-18T09:41:08.001Z</time>
      </trkpt>
      <trkpt lat="42.32607" lon="8.63415">
        <ele>264.014</ele>
        <time>2019-10-18T09:41:38.001Z</time>
      </trkpt>
      <trkpt lat="42.32492" lon="8.63561">
        <ele>264.115</ele>
        <time>2019-10-18T09:42:08.001Z</time>
      </trkpt>
      <trkpt lat="42.32459" lon="8.63776">
        <ele>266.139</ele>
        <time>2019-10-18T09:42:38.001Z</time>
      </trkpt>
      <trkpt lat="42.32341" lon="8.63924">
        <ele>264.589</ele>
        <time>2019-10-18T09:43:08.001Z</time>
      </trkpt>
      <trkpt lat="42.32387" lon="8.64074">
        <ele>265.639</ele>
        <time>2019-10-18T09:43:38.001Z</time>
      </trkpt>
      <trkpt lat="42.32306" lon="8.64182">
        <ele>265.027</ele>
        <time>2019-10-18T09:44:08.001Z</time>
      </trkpt>
      <trkpt lat="42.32198" lon="8.64271">
        <ele>263.427</ele>
        <time>2019-10-18T09:44:38.001Z</time>
      </trkpt>
      <trkpt lat="42.32307" lon="8.64438">
        <ele>265.897</ele>
        <time>2019-10-18T09:45:08.001Z</time>
      </trkpt>
      <trkpt lat="42.32409" lon="8.64611">
        <ele>263.847</ele>
        <time>2019-10-18T09:45:38.001Z</time>
      </trkpt>
      <trkpt lat="42.32286" lon="8.64741">
        <ele>263.31</ele>
        <time>2019-10-18T09:46:08.001Z</time>
      </trkpt>
      <trkpt lat="42.32136" lon="8.64765">
        <ele>265.23</ele>
        <time>2019-10-18T09:46:38.001Z</time>
      </trkpt>
      <trkpt lat="42.32091" lon="8.6494">
        <ele>266.606</ele>
        <time>2019-10-18T09:47:08.001Z</time>
      </trkpt>
      <trkpt lat="42.32121" lon="8.65119">
        <ele>267.471</ele>
        <time>2019-10-18T09:47:38.001Z</time>
      </trkpt>
      <trkpt lat="42.32046" lon="8.65257">
        <ele>270.449</ele>
        <time>2019-10-18T09:48:08.001Z</time>
      </trkpt>
      <trkpt lat="42.32135" lon="8.65358">
        <ele>272.886</ele>
        <time>2019-10-18T09:48:38.001Z</time>
      </trkpt>
      <trkpt lat="42.32283" lon="8.65372">
        <ele>273.469</ele>
        <time>2019-10-18T09:49:08.001Z</time>
      </trkpt>
      <trkpt lat="42.32427" lon="8.65399">
        <ele>268.704</ele>
        <time>2019-10-18T09:49:38.001Z</time>
      </trkpt>
      <trkpt lat="42.32543" lon="8.65402">
        <ele>271.62</ele>
        <time>2019-10-18T09:50:08.001Z</time>
      </trkpt>
      <trkpt lat="42.32625" lon="8.65528">
        <ele>272.146</ele>
        <time>2019-10-18T09:50:38.001Z</time>
      </trkpt>
      <trkpt lat="42.32702" lon="8.65653">
        <ele>275.693</ele>
        <time>2019-10-18T09:51:08.001Z</time>
      </trkpt>
      <trkpt lat="42.32732" lon="8.65765">
        <ele>275.49</ele>
        <time>2019-10-18T09:51:38.001Z</time>
      </trkpt>
      <trkpt lat="42.32614" lon="8.65754">
        <ele>278.532</ele>
        <time>2019-10-18T09:52:08.001Z</time>
      </trkpt>
      <trkpt lat="42.32498" lon="8.65729">
        <ele>279.892</ele>
        <time>2019-10-18T09:52:38.001Z</time>
      </trkpt>
      <trkpt lat="42.32436" lon="8.65853">
        <ele>278.617</ele>
        <time>2019-10-18T09:53:08.001Z</time>
      </trkpt>
      <trkpt lat="42.32437" lon="8.66041">
        <ele>279.343</ele>
        <time>2019-10-18T09:53:38.001Z</time>
      </trkpt>
      <trkpt lat="42.32296" lon="8.65994">
        <ele>279.746</ele>
        <time>2019-10-18T09:54:08.001Z</time>
      </trkpt>
      <trkpt lat="42.32156" lon="8.66018">
        <ele>277.509</ele>
        <time>2019-10-18T09:54:38.001Z</time>
      </trkpt>
      <trkpt lat="42.32082" lon="8.66184">
        <ele>278.83</ele>
        <time>2019-10-18T09:55:08.001Z</time>
      </trkpt>
      <trkpt lat="42.3193" lon="8.66223">
        <ele>279.86</ele>
        <time>2019-10-18T09:55:41.001Z</time>
      </trkpt>
      <trkpt lat="42.31813" lon="8.66177">
        <ele>280.486</ele>
        <time>2019-10-18T09:56:11.001Z</time>
      </trkpt>
      <trkpt lat="42.31694" lon="8.66086">
        <ele>282.354</ele>
        <time>2019-10-18T09:56:41.001Z</time>
      </trkpt>
      <trkpt lat="42.31632" lon="8.66146">
        <ele>281.835</ele>
        <time>2019-10-18T09:57:11.001Z</time>
      </trkpt>
      <trkpt lat="42.31711" lon="8.66465">
        <ele>272.827</ele>
        <time>2019-10-18T09:57:41.001Z</time>
      </trkpt>
      <trkpt lat="42.31806" lon="8.66747">
        <ele>262.23</ele>
        <time>2019-10-18T09:58:11.001Z</time>
      </trkpt>
      <trkpt lat="42.31995" lon="8.6673">
        <ele>248.394</ele>
        <time>2019-10-18T09:58:41.001Z</time>
      </trkpt>
      <trkpt lat="42.32121" lon="8.66838">
        <ele>243.008</ele>
        <time>2019-10-18T09:59:11.001Z</time>
      </trkpt>
      <trkpt lat="42.32035" lon="8.67043">
        <ele>240.976</ele>
        <time>2019-10-18T09:59:41.001Z</time>
      </trkpt>
      <trkpt lat="42.31886" lon="8.6716">
        <ele>235.648</ele>
        <time>2019-10-18T10:00:11.001Z</time>
      </trkpt>
      <trkpt lat="42.31679" lon="8.67265">
        <ele>227.521</ele>
        <time>2019-10-18T10:00:41.001Z</time>
      </trkpt>
      <trkpt lat="42.31836" lon="8.6755">
        <ele>215.375</ele>
        <time>2019-10-18T10:01:11.001Z</time>
      </trkpt>
      <trkpt lat="42.3188" lon="8.67799">
        <ele>205.992</ele>
        <time>2019-10-18T10:01:41.001Z</time>
      </trkpt>
      <trkpt lat="42.31729" lon="8.67702">
        <ele>210.829</ele>
        <time>2019-10-18T10:02:11.001Z</time>
      </trkpt>
      <trkpt lat="42.31582" lon="8.67645">
        <ele>214.416</ele>
        <time>2019-10-18T10:02:41.001Z</time>
      </trkpt>
      <trkpt lat="42.31527" lon="8.67728">
        <ele>211.622</ele>
        <time>2019-10-18T10:03:11.001Z</time>
      </trkpt>
      <trkpt lat="42.31591" lon="8.67916">
        <ele>209.538</ele>
        <time>2019-10-18T10:03:41.001Z</time>
      </trkpt>
      <trkpt lat="42.31667" lon="8.6809">
        <ele>208.734</ele>
        <time>2019-10-18T10:04:11.001Z</time>
      </trkpt>
      <trkpt lat="42.31502" lon="8.68122">
        <ele>211.211</ele>
        <time>2019-10-18T10:04:41.001Z</time>
      </trkpt>
      <trkpt lat="42.31405" lon="8.68294">
        <ele>210.077</ele>
        <time>2019-10-18T10:05:11.001Z</time>
      </trkpt>
      <trkpt lat="42.31274" lon="8.68239">
        <ele>217.221</ele>
        <time>2019-10-18T10:05:41.001Z</time>
      </trkpt>
      <trkpt lat="42.31169" lon="8.6814">
        <ele>217.553</ele>
        <time>2019-10-18T10:06:11.001Z</time>
      </trkpt>
      <trkpt lat="42.31088" lon="8.68244">
        <ele>212.475</ele>
        <time>2019-10-18T10:06:41.001Z</time>
      </trkpt>
      <trkpt lat="42.30941" lon="8.68295">
        <ele>209.819</ele>
        <time>2019-10-18T10:07:11.001Z</time>
      </trkpt>
      <trkpt lat="42.30827" lon="8.68148">
        <ele>209.27</ele>
        <time>2019-10-18T10:07:41.001Z</time>
      </trkpt>
      <trkpt lat="42.30682" lon="8.68134">
        <ele>206.498</ele>
        <time>2019-10-18T10:08:11.001Z</time>
      </trkpt>
      <trkpt lat="42.30548" lon="8.68166">
        <ele>205.476</ele>
        <time>2019-10-18T10:08:41.001Z</time>
      </trkpt>
      <trkpt lat="42.30523" lon="8.67957">
        <ele>208.993</ele>
        <time>2019-10-18T10:09:11.001Z</time>
      </trkpt>
      <trkpt lat="42.30377" lon="8.67879">
        <ele>205.988</ele>
        <time>2019-10-18T10:09:41.001Z</time>
      </trkpt>
      <trkpt lat="42.30327" lon="8.67667">
        <ele>206.068</ele>
        <time>2019-10-18T10:10:11.001Z</time>
      </trkpt>
      <trkpt lat="42.30284" lon="8.67418">
        <ele>205.763</ele>
        <time>2019-10-18T10:10:41.001Z</time>
      </trkpt>
      <trkpt lat="42.30183" lon="8.67414">
        <ele>197.937</ele>
        <time>2019-10-18T10:11:11.001Z</time>
      </trkpt>
      <trkpt lat="42.30068" lon="8.67603">
        <ele>197.176</ele>
        <time>2019-10-18T10:11:41.001Z</time>
      </trkpt>
      <trkpt lat="42.29888" lon="8.67603">
        <ele>190.795</ele>
        <time>2019-10-18T10:12:11.001Z</time>
      </trkpt>
      <trkpt lat="42.29716" lon="8.67687">
        <ele>184.211</ele>
        <time>2019-10-18T10:12:41.001Z</time>
      </trkpt>
      <trkpt lat="42.29537" lon="8.67753">
        <ele>176.169</ele>
        <time>2019-10-18T10:13:14.001Z</time>
      </trkpt>
      <trkpt lat="42.2958" lon="8.67985">
        <ele>171.832</ele>
        <time>2019-10-18T10:13:44.001Z</time>
      </trkpt>
      <trkpt lat="42.29454" lon="8.6801">
        <ele>171.521</ele>
        <time>2019-10-18T10:14:14.001Z</time>
      </trkpt>
      <trkpt lat="42.29343" lon="8.67939">
        <ele>174.8</ele>
        <time>2019-10-18T10:14:44.001Z</time>
      </trkpt>
      <trkpt lat="42.2922" lon="8.67877">
        <ele>179.593</ele>
        <time>2019-10-18T10:15:14.001Z</time>
      </trkpt>
      <trkpt lat="42.29138" lon="8.67873">
        <ele>183.465</ele>
        <time>2019-10-18T10:16:26.001Z</time>
      </trkpt>
      <trkpt lat="42.29097" lon="8.67906">
        <ele>180.912</ele>
        <time>2019-10-18T10:16:59.001Z</time>
      </trkpt>
      <trkpt lat="42.29067" lon="8.68022">
        <ele>176.79</ele>
        <time>2019-10-18T10:17:29.001Z</time>
      </trkpt>
      <trkpt lat="42.28975" lon="8.6806">
        <ele>179.05</ele>
        <time>2019-10-18T10:17:59.001Z</time>
      </trkpt>
      <trkpt lat="42.28894" lon="8.6814">
        <ele>181.176</ele>
        <time>2019-10-18T10:18:29.001Z</time>
      </trkpt>
      <trkpt lat="42.28957" lon="8.68285">
        <ele>182.238</ele>
        <time>2019-10-18T10:18:59.001Z</time>
      </trkpt>
      <trkpt lat="42.29039" lon="8.68592">
        <ele>168.89</ele>
        <time>2019-10-18T10:19:29.001Z</time>
      </trkpt>
      <trkpt lat="42.29193" lon="8.68637">
        <ele>148.673</ele>
        <time>2019-10-18T10:19:59.001Z</time>
      </trkpt>
      <trkpt lat="42.29398" lon="8.68561">
        <ele>136.318</ele>
        <time>2019-10-18T10:20:29.001Z</time>
      </trkpt>
      <trkpt lat="42.29469" lon="8.68665">
        <ele>118.328</ele>
        <time>2019-10-18T10:20:59.001Z</time>
      </trkpt>
      <trkpt lat="42.29366" lon="8.68934">
        <ele>102.694</ele>
        <time>2019-10-18T10:21:29.001Z</time>
      </trkpt>
      <trkpt lat="42.29271" lon="8.69159">
        <ele>91.577</ele>
        <time>2019-10-18T10:21:59.001Z</time>
      </trkpt>
      <trkpt lat="42.2909" lon="8.69422">
        <ele>76.739</ele>
        <time>2019-10-18T10:22:29.001Z</time>
      </trkpt>
      <trkpt lat="42.29181" lon="8.6977">
        <ele>52.795</ele>
        <time>2019-10-18T10:22:59.001Z</time>
      </trkpt>
      <trkpt lat="42.2949" lon="8.69785">
        <ele>33.621</ele>
        <time>2019-10-18T10:23:29.001Z</time>
      </trkpt>
      <trkpt lat="42.29706" lon="8.69883">
        <ele>23.687</ele>
        <time>2019-10-18T10:23:59.001Z</time>
      </trkpt>
      <trkpt lat="42.29583" lon="8.69985">
        <ele>20.477</ele>
        <time>2019-10-18T10:24:29.001Z</time>
      </trkpt>
      <trkpt lat="42.29477" lon="8.70093">
        <ele>25.409</ele>
        <time>2019-10-18T10:24:59.001Z</time>
      </trkpt>
      <trkpt lat="42.29382" lon="8.70113">
        <ele>31.339</ele>
        <time>2019-10-18T10:25:29.001Z</time>
      </trkpt>
      <trkpt lat="42.29279" lon="8.70061">
        <ele>31.573</ele>
        <time>2019-10-18T10:25:59.001Z</time>
      </trkpt>
      <trkpt lat="42.29167" lon="8.70021">
        <ele>34.107</ele>
        <time>2019-10-18T10:26:29.001Z</time>
      </trkpt>
      <trkpt lat="42.29075" lon="8.69982">
        <ele>37.285</ele>
        <time>2019-10-18T10:26:59.001Z</time>
      </trkpt>
      <trkpt lat="42.29018" lon="8.69948">
        <ele>38.302</ele>
        <time>2019-10-18T10:27:29.001Z</time>
      </trkpt>
      <trkpt lat="42.28971" lon="8.70021">
        <ele>42.64</ele>
        <time>2019-10-18T10:27:59.001Z</time>
      </trkpt>
      <trkpt lat="42.28912" lon="8.7">
        <ele>48.208</ele>
        <time>2019-10-18T10:28:29.001Z</time>
      </trkpt>
      <trkpt lat="42.28897" lon="8.69912">
        <ele>57.445</ele>
        <time>2019-10-18T10:28:59.001Z</time>
      </trkpt>
      <trkpt lat="42.28839" lon="8.69888">
        <ele>58.246</ele>
        <time>2019-10-18T10:29:29.001Z</time>
      </trkpt>
      <trkpt lat="42.28783" lon="8.6983">
        <ele>62.575</ele>
        <time>2019-10-18T10:29:59.001Z</time>
      </trkpt>
      <trkpt lat="42.28722" lon="8.69787">
        <ele>61.31</ele>
        <time>2019-10-18T10:30:29.001Z</time>
      </trkpt>
      <trkpt lat="42.28658" lon="8.69799">
        <ele>62.053</ele>
        <time>2019-10-18T10:30:59.001Z</time>
      </trkpt>
      <trkpt lat="42.28634" lon="8.69878">
        <ele>64.27</ele>
        <time>2019-10-18T10:31:29.001Z</time>
      </trkpt>
      <trkpt lat="42.286" lon="8.69968">
        <ele>70.395</ele>
        <time>2019-10-18T10:32:02Z</time>
      </trkpt>
      <trkpt lat="42.28541" lon="8.69964">
        <ele>79.667</ele>
        <time>2019-10-18T10:32:32.001Z</time>
      </trkpt>
      <trkpt lat="42.28479" lon="8.6995">
        <ele>84.435</ele>
        <time>2019-10-18T10:33:02Z</time>
      </trkpt>
      <trkpt lat="42.28459" lon="8.69893">
        <ele>95.662</ele>
        <time>2019-10-18T10:33:38.001Z</time>
      </trkpt>
      <trkpt lat="42.28473" lon="8.69818">
        <ele>103.46</ele>
        <time>2019-10-18T10:34:08.001Z</time>
      </trkpt>
      <trkpt lat="42.28481" lon="8.69722">
        <ele>101.745</ele>
        <time>2019-10-18T10:34:38.001Z</time>
      </trkpt>
      <trkpt lat="42.28456" lon="8.69623">
        <ele>101.259</ele>
        <time>2019-10-18T10:35:08.001Z</time>
      </trkpt>
      <trkpt lat="42.28398" lon="8.69543">
        <ele>94.803</ele>
        <time>2019-10-18T10:35:38.001Z</time>
      </trkpt>
      <trkpt lat="42.28336" lon="8.69612">
        <ele>89.803</ele>
        <time>2019-10-18T10:36:08.001Z</time>
      </trkpt>
      <trkpt lat="42.28281" lon="8.69667">
        <ele>96.025</ele>
        <time>2019-10-18T10:36:38.001Z</time>
      </trkpt>
      <trkpt lat="42.28222" lon="8.69706">
        <ele>100.362</ele>
        <time>2019-10-18T10:37:08.001Z</time>
      </trkpt>
      <trkpt lat="42.28166" lon="8.69694">
        <ele>109.99</ele>
        <time>2019-10-18T10:37:38.001Z</time>
      </trkpt>
      <trkpt lat="42.28136" lon="8.69614">
        <ele>123.702</ele>
        <time>2019-10-18T10:38:08.001Z</time>
      </trkpt>
      <trkpt lat="42.28095" lon="8.6955">
        <ele>128.492</ele>
        <time>2019-10-18T10:38:38.001Z</time>
      </trkpt>
      <trkpt lat="42.2805" lon="8.69489">
        <ele>129.283</ele>
        <time>2019-10-18T10:39:08.001Z</time>
      </trkpt>
      <trkpt lat="42.28003" lon="8.69428">
        <ele>129.395</ele>
        <time>2019-10-18T10:39:38.001Z</time>
      </trkpt>
      <trkpt lat="42.27953" lon="8.69391">
        <ele>130.062</ele>
        <time>2019-10-18T10:40:08.001Z</time>
      </trkpt>
      <trkpt lat="42.27933" lon="8.69316">
        <ele>136.97</ele>
        <time>2019-10-18T10:40:38.001Z</time>
      </trkpt>
      <trkpt lat="42.27917" lon="8.69231">
        <ele>138.984</ele>
        <time>2019-10-18T10:41:08.001Z</time>
      </trkpt>
      <trkpt lat="42.27863" lon="8.69231">
        <ele>134.877</ele>
        <time>2019-10-18T10:41:38.001Z</time>
      </trkpt>
      <trkpt lat="42.27811" lon="8.6931">
        <ele>139.122</ele>
        <time>2019-10-18T10:42:08.001Z</time>
      </trkpt>
      <trkpt lat="42.27732" lon="8.69332">
        <ele>146.986</ele>
        <time>2019-10-18T10:42:38.001Z</time>
      </trkpt>
      <trkpt lat="42.27652" lon="8.69241">
        <ele>146.703</ele>
        <time>2019-10-18T10:43:08.001Z</time>
      </trkpt>
      <trkpt lat="42.27568" lon="8.69208">
        <ele>143.434</ele>
        <time>2019-10-18T10:43:38.001Z</time>
      </trkpt>
      <trkpt lat="42.27491" lon="8.69164">
        <ele>145.093</ele>
        <time>2019-10-18T10:44:08.001Z</time>
      </trkpt>
      <trkpt lat="42.27425" lon="8.69164">
        <ele>145.985</ele>
        <time>2019-10-18T10:44:38.001Z</time>
      </trkpt>
      <trkpt lat="42.27333" lon="8.69189">
        <ele>145.41</ele>
        <time>2019-10-18T10:45:08.001Z</time>
      </trkpt>
      <trkpt lat="42.27224" lon="8.6929">
        <ele>144.685</ele>
        <time>2019-10-18T10:45:38.001Z</time>
      </trkpt>
      <trkpt lat="42.27187" lon="8.69369">
        <ele>143.811</ele>
        <time>2019-10-18T10:47:14.001Z</time>
      </trkpt>
      <trkpt lat="42.27014" lon="8.69474">
        <ele>132.553</ele>
        <time>2019-10-18T10:47:44.001Z</time>
      </trkpt>
      <trkpt lat="42.26868" lon="8.69821">
        <ele>114.196</ele>
        <time>2019-10-18T10:48:14.001Z</time>
      </trkpt>
      <trkpt lat="42.26791" lon="8.70204">
        <ele>84.748</ele>
        <time>2019-10-18T10:48:44.001Z</time>
      </trkpt>
      <trkpt lat="42.26663" lon="8.70508">
        <ele>64.293</ele>
        <time>2019-10-18T10:49:14.001Z</time>
      </trkpt>
      <trkpt lat="42.26622" lon="8.70579">
        <ele>58.201</ele>
        <time>2019-10-18T10:50:53.001Z</time>
      </trkpt>
      <trkpt lat="42.26488" lon="8.70748">
        <ele>59.69</ele>
        <time>2019-10-18T10:51:23.001Z</time>
      </trkpt>
      <trkpt lat="42.26404" lon="8.70888">
        <ele>43.383</ele>
        <time>2019-10-18T10:51:56.001Z</time>
      </trkpt>
      <trkpt lat="42.26432" lon="8.70715">
        <ele>39.382</ele>
        <time>2019-10-18T10:52:26.001Z</time>
      </trkpt>
      <trkpt lat="42.26529" lon="8.70585">
        <ele>39.879</ele>
        <time>2019-10-18T10:52:56.001Z</time>
      </trkpt>
      <trkpt lat="42.26601" lon="8.70439">
        <ele>39.419</ele>
        <time>2019-10-18T10:53:26.001Z</time>
      </trkpt>
      <trkpt lat="42.26604" lon="8.70428">
        <ele>41.532</ele>
        <time>2019-10-18T10:55:17.001Z</time>
      </trkpt>
      <trkpt lat="42.2663" lon="8.70267">
        <ele>43.722</ele>
        <time>2019-10-18T10:55:47.001Z</time>
      </trkpt>
      <trkpt lat="42.26657" lon="8.7007">
        <ele>41.553</ele>
        <time>2019-10-18T10:56:17.001Z</time>
      </trkpt>
      <trkpt lat="42.26711" lon="8.69863">
        <ele>35.241</ele>
        <time>2019-10-18T10:56:47.001Z</time>
      </trkpt>
      <trkpt lat="42.26742" lon="8.69689">
        <ele>26.577</ele>
        <time>2019-10-18T10:57:17.001Z</time>
      </trkpt>
      <trkpt lat="42.26755" lon="8.69451">
        <ele>19.165</ele>
        <time>2019-10-18T10:57:47.001Z</time>
      </trkpt>
      <trkpt lat="42.26782" lon="8.69392">
        <ele>16.198</ele>
        <time>2019-10-18T10:58:17.001Z</time>
      </trkpt>
      <trkpt lat="42.26743" lon="8.69333">
        <ele>19.852</ele>
        <time>2019-10-18T11:02:08.001Z</time>
      </trkpt>
      <trkpt lat="42.26723" lon="8.69351">
        <ele>21.531</ele>
        <time>2019-10-18T11:03:05.001Z</time>
      </trkpt>
      <trkpt lat="42.26722" lon="8.69354">
        <ele>33.449</ele>
        <time>2019-10-18T11:05:14.001Z</time>
      </trkpt>
      <trkpt lat="42.26725" lon="8.69347">
        <ele>35.77</ele>
        <time>2019-10-18T11:06:02Z</time>
      </trkpt>
      <trkpt lat="42.26699" lon="8.69381">
        <ele>84.24</ele>
        <time>2019-10-18T11:10:37.001Z</time>
      </trkpt>
      <trkpt lat="42.26705" lon="8.69358">
        <ele>53.076</ele>
        <time>2019-10-18T11:11:13.001Z</time>
      </trkpt>
      <trkpt lat="42.2673" lon="8.69369">
        <ele>17.882</ele>
        <time>2019-10-18T11:14:39.001Z</time>
      </trkpt>
    </trkseg>
  </trk>
</gpx>